Time;durP1;ratioP1;P1;durP2;ratioP2;P2;SDS_P1;SDS_P2;PMS_P1;PMS_P2;Temp;Humidity;BMP_temperature;BMP_pressure;BME280_temperature;BME280_humidity;BME280_pressure;Samples;Min_cycle;Max_cycle;Signal;HPM_P1;HPM_P2
2022/05/24 00:00:37;;;;;;;23.37;21.50;;;;;;;10.24;100.00;98393.41;2066933;28;20191;-73
2022/05/24 00:01:39;;;;;;;23.05;20.92;;;;;;;10.27;100.00;98389.34;2066706;28;20177;-72
2022/05/24 00:02:41;;;;;;;22.50;20.45;;;;;;;10.25;100.00;98381.66;2066644;28;20547;-72
2022/05/24 00:03:48;;;;;;;22.23;20.17;;;;;;;10.26;100.00;98387.78;2066741;28;20239;-73
2022/05/24 00:04:49;;;;;;;22.25;20.35;;;;;;;10.26;100.00;98385.13;2066720;28;20255;-73
2022/05/24 00:05:51;;;;;;;22.33;20.33;;;;;;;10.24;100.00;98385.41;2066607;28;20197;-73
2022/05/24 00:06:52;;;;;;;22.50;20.50;;;;;;;10.24;100.00;98390.75;2065544;28;20220;-72
2022/05/24 00:07:54;;;;;;;22.17;20.20;;;;;;;10.26;100.00;98387.78;2066109;28;20301;-72
2022/05/24 00:08:57;;;;;;;22.02;20.13;;;;;;;10.26;100.00;98395.78;2065932;28;20452;-73
2022/05/24 00:09:59;;;;;;;21.57;19.67;;;;;;;10.29;100.00;98392.50;2066149;28;20197;-72
2022/05/24 00:11:03;;;;;;;21.83;19.80;;;;;;;10.27;100.00;98400.03;2066631;28;20188;-73
2022/05/24 00:12:05;;;;;;;22.60;20.73;;;;;;;10.31;100.00;98390.28;2066588;28;20193;-72
2022/05/24 00:13:08;;;;;;;20.88;19.27;;;;;;;10.34;100.00;98392.34;2066576;28;20240;-73
2022/05/24 00:14:09;;;;;;;22.80;20.90;;;;;;;10.40;100.00;98394.53;2066566;28;20655;-73
2022/05/24 00:15:19;;;;;;;22.33;20.25;;;;;;;10.40;100.00;98389.22;2065895;28;20248;-72
2022/05/24 00:16:21;;;;;;;21.35;19.42;;;;;;;10.37;100.00;98384.50;2066283;28;20173;-73
2022/05/24 00:17:22;;;;;;;20.02;18.33;;;;;;;10.39;100.00;98395.66;2066693;28;20222;-73
2022/05/24 00:18:28;;;;;;;21.55;19.95;;;;;;;10.36;100.00;98393.59;2066541;28;20239;-73
2022/05/24 00:19:30;;;;;;;21.38;19.67;;;;;;;10.40;100.00;98388.44;2065895;28;20197;-73
2022/05/24 00:20:37;;;;;;;22.08;20.23;;;;;;;10.39;100.00;98397.53;2066068;28;20197;-72
2022/05/24 00:21:41;;;;;;;22.00;20.23;;;;;;;10.36;100.00;98398.94;2065893;28;20224;-73
2022/05/24 00:22:42;;;;;;;22.73;20.73;;;;;;;10.34;100.00;98406.47;2065916;28;20651;-73
2022/05/24 00:23:44;;;;;;;21.98;20.00;;;;;;;10.29;100.00;98398.59;2065900;28;20204;-73
2022/05/24 00:24:47;;;;;;;21.70;19.77;;;;;;;10.29;100.00;98395.16;2066484;28;20656;-73
2022/05/24 00:25:52;;;;;;;22.77;20.70;;;;;;;10.28;100.00;98390.94;2066673;28;20211;-72
2022/05/24 00:26:53;;;;;;;20.92;19.30;;;;;;;10.31;100.00;98396.41;2066437;28;20247;-73
2022/05/24 00:27:56;;;;;;;21.50;19.67;;;;;;;10.30;100.00;98389.50;2066544;28;20242;-72
2022/05/24 00:28:57;;;;;;;21.77;20.08;;;;;;;10.29;100.00;98393.28;2066586;28;20192;-72
2022/05/24 00:30:01;;;;;;;22.50;20.33;;;;;;;10.31;100.00;98390.28;2066358;28;20224;-73
2022/05/24 00:31:04;;;;;;;22.08;20.02;;;;;;;10.31;100.00;98384.97;2065785;28;20193;-72
2022/05/24 00:32:06;;;;;;;21.92;20.13;;;;;;;10.30;100.00;98392.19;2065978;28;20268;-73
2022/05/24 00:33:08;;;;;;;21.88;20.13;;;;;;;10.36;100.00;98388.28;2066407;28;20192;-73
2022/05/24 00:34:13;;;;;;;21.65;19.65;;;;;;;10.35;100.00;98393.94;2066564;28;20193;-72
2022/05/24 00:35:17;;;;;;;21.42;19.58;;;;;;;10.28;100.00;98386.38;2066529;28;20625;-73
2022/05/24 00:36:18;;;;;;;19.80;18.08;;;;;;;10.27;100.00;98384.03;2066040;28;20228;-73
2022/05/24 00:37:23;;;;;;;20.87;19.17;;;;;;;10.27;100.00;98389.34;2066359;28;20197;-72
2022/05/24 00:38:28;;;;;;;21.52;19.38;;;;;;;10.27;100.00;98394.69;2066742;28;20178;-72
2022/05/24 00:39:30;;;;;;;21.83;19.67;;;;;;;10.22;100.00;98389.47;2066558;28;20596;-73
2022/05/24 00:40:39;;;;;;;21.10;19.23;;;;;;;10.26;100.00;98396.56;2065651;28;20205;-73
2022/05/24 00:41:44;;;;;;;22.63;20.77;;;;;;;10.28;100.00;98388.25;2065966;28;20261;-73
2022/05/24 00:42:47;;;;;;;22.70;20.55;;;;;;;10.24;100.00;98398.75;2065752;28;20238;-73
2022/05/24 00:43:53;;;;;;;22.65;20.58;;;;;;;10.25;100.00;98396.84;2065872;28;20231;-72
2022/05/24 00:45:01;;;;;;;21.55;19.75;;;;;;;10.20;100.00;98389.78;2066572;28;20269;-73
2022/05/24 00:46:05;;;;;;;21.80;20.00;;;;;;;10.25;100.00;98402.19;2065795;28;20192;-73
2022/05/24 00:47:09;;;;;;;22.38;20.58;;;;;;;10.28;100.00;98398.91;2065960;28;20196;-73
2022/05/24 00:48:22;;;;;;;21.75;19.85;;;;;;;10.27;100.00;98390.13;2065616;28;20200;-73
2022/05/24 00:49:28;;;;;;;22.98;20.98;;;;;;;10.29;100.00;98398.59;2066195;28;20172;-72
2022/05/24 00:50:38;;;;;;;22.48;20.48;;;;;;;10.30;100.00;98391.38;2066425;28;20302;-72
2022/05/24 00:51:42;;;;;;;21.15;19.30;;;;;;;10.26;100.00;98385.91;2066056;28;20225;-73
2022/05/24 00:52:47;;;;;;;21.40;19.52;;;;;;;10.25;100.00;98380.84;2066248;28;20659;-72
2022/05/24 00:53:51;;;;;;;20.80;19.00;;;;;;;10.27;100.00;98384.03;2065863;28;20729;-73
2022/05/24 00:54:53;;;;;;;20.92;19.23;;;;;;;10.25;100.00;98386.19;2057959;28;20194;-73
2022/05/24 00:55:59;;;;;;;20.27;18.50;;;;;;;10.25;100.00;98383.53;2057909;28;20201;-72
2022/05/24 00:57:07;;;;;;;21.50;19.70;;;;;;;10.26;100.00;98371.78;2065819;28;20636;-72
2022/05/24 00:58:14;;;;;;;21.05;19.05;;;;;;;10.36;100.00;98382.16;2066401;28;20590;-72
2022/05/24 00:59:23;;;;;;;20.10;18.50;;;;;;;10.32;100.00;98376.66;2065866;28;20760;-73
2022/05/24 01:00:25;;;;;;;21.58;19.67;;;;;;;10.33;100.00;98372.88;2066043;28;20178;-73
2022/05/24 01:01:31;;;;;;;20.60;18.75;;;;;;;10.30;100.00;98368.19;2065671;28;20273;-73
2022/05/24 01:02:36;;;;;;;20.63;18.98;;;;;;;10.31;100.00;98367.09;2065882;28;20630;-72
2022/05/24 01:03:38;;;;;;;21.65;19.85;;;;;;;10.26;100.00;98367.25;2066242;28;20173;-72
2022/05/24 01:04:39;;;;;;;21.20;19.50;;;;;;;10.25;100.00;98371.00;2066175;28;20196;-72
2022/05/24 01:05:44;;;;;;;20.17;18.67;;;;;;;10.23;100.00;98367.06;2065520;28;20209;-73
2022/05/24 01:06:47;;;;;;;20.38;18.77;;;;;;;10.29;100.00;98363.16;2065361;28;20232;-73
2022/05/24 01:07:49;;;;;;;22.27;20.38;;;;;;;10.26;100.00;98361.13;2065482;28;20193;-72
2022/05/24 01:08:50;;;;;;;20.63;19.13;;;;;;;10.23;100.00;98359.84;2065790;28;20189;-72
2022/05/24 01:09:54;;;;;;;21.25;19.35;;;;;;;10.28;100.00;98361.59;2065583;28;20663;-73
2022/05/24 01:10:55;;;;;;;19.52;18.02;;;;;;;10.28;100.00;98356.25;2065600;28;20193;-73
2022/05/24 01:12:00;;;;;;;20.67;19.13;;;;;;;10.29;100.00;98365.81;2065279;28;20239;-73
2022/05/24 01:13:04;;;;;;;20.40;18.63;;;;;;;10.27;100.00;98357.38;2065670;28;20212;-73
2022/05/24 01:14:07;;;;;;;20.52;18.73;;;;;;;10.24;100.00;98353.41;2066374;28;20177;-73
2022/05/24 01:15:10;;;;;;;19.70;18.17;;;;;;;10.23;100.00;98359.06;2065479;28;20724;-73
2022/05/24 01:16:13;;;;;;;20.88;18.90;;;;;;;10.27;100.00;98357.38;2065643;28;20173;-73
2022/05/24 01:17:18;;;;;;;20.55;18.80;;;;;;;10.26;100.00;98361.91;2066202;28;20232;-73
2022/05/24 01:18:23;;;;;;;20.85;19.15;;;;;;;10.25;100.00;98359.53;2066049;28;20187;-73
2022/05/24 01:19:34;;;;;;;21.00;19.05;;;;;;;10.28;100.00;98366.94;2066355;28;20170;-73
2022/05/24 01:20:36;;;;;;;19.67;18.10;;;;;;;10.27;100.00;98370.69;2065506;28;20207;-72
2022/05/24 01:21:39;;;;;;;20.38;18.67;;;;;;;10.23;100.00;98353.72;2065026;28;20287;-73
2022/05/24 01:22:59;;;;;;;19.88;18.20;;;;;;;10.23;100.00;98361.72;2065519;28;20189;-73
2022/05/24 01:24:08;;;;;;;20.85;19.25;;;;;;;10.18;100.00;98358.09;2066113;28;20552;-73
2022/05/24 01:25:18;;;;;;;20.50;18.75;;;;;;;10.17;100.00;98353.09;2066162;28;20635;-73
2022/05/24 01:26:26;;;;;;;19.73;18.23;;;;;;;10.20;100.00;98369.22;2066186;28;20178;-73
2022/05/24 01:27:29;;;;;;;19.90;18.20;;;;;;;10.18;100.00;98363.44;2066190;28;20592;-73
2022/05/24 01:28:43;;;;;;;19.92;18.42;;;;;;;10.18;100.00;98363.44;2066032;28;20192;-73
2022/05/24 01:29:43;;;;;;;20.20;18.20;;;;;;;10.22;100.00;98362.81;2065866;28;20213;-73
2022/05/24 01:30:45;;;;;;;19.27;17.67;;;;;;;10.23;100.00;98361.72;2066166;28;20199;-73
2022/05/24 01:37:08;;;;;;;19.45;17.92;;;;;;;10.28;100.00;98353.59;2065953;28;20197;-72
2022/05/24 01:38:11;;;;;;;19.80;18.17;;;;;;;10.28;100.00;98349.03;2065306;28;20216;-72
2022/05/24 01:39:15;;;;;;;19.00;17.40;;;;;;;10.27;100.00;98346.69;2065482;28;20212;-73
2022/05/24 01:40:18;;;;;;;18.30;16.80;;;;;;;10.24;100.00;98339.31;2064805;28;20317;-73
2022/05/24 01:41:23;;;;;;;18.27;16.85;;;;;;;10.22;100.00;98349.47;2065195;28;20625;-73
2022/05/24 01:42:24;;;;;;;19.50;18.00;;;;;;;10.16;100.00;98338.97;2065397;28;20227;-73
2022/05/24 01:43:28;;;;;;;19.43;18.00;;;;;;;10.19;100.00;98346.34;2065319;28;20340;-73
2022/05/24 01:44:35;;;;;;;18.85;17.25;;;;;;;10.24;100.00;98344.63;2065307;28;20208;-73
2022/05/24 01:45:39;;;;;;;19.80;18.40;;;;;;;10.23;100.00;98343.06;2066068;28;20177;-72
2022/05/24 01:46:42;;;;;;;19.90;18.20;;;;;;;10.28;100.00;98343.72;2065256;28;20208;-72
2022/05/24 01:47:47;;;;;;;19.63;18.13;;;;;;;10.28;100.00;98340.25;2065396;28;20196;-72
2022/05/24 01:48:50;;;;;;;19.60;18.10;;;;;;;10.26;100.00;98345.13;2065350;28;20638;-72
2022/05/24 01:49:56;;;;;;;18.88;17.25;;;;;;;10.23;100.00;98338.53;2057743;28;20284;-73
2022/05/24 01:50:58;;;;;;;18.58;17.17;;;;;;;10.24;100.00;98336.63;2064792;28;20199;-72
2022/05/24 01:52:04;;;;;;;19.55;18.13;;;;;;;10.23;100.00;98337.72;2065271;28;20197;-72
2022/05/24 01:53:10;;;;;;;18.35;17.05;;;;;;;10.23;100.00;98335.06;2065393;28;20182;-73
2022/05/24 01:54:13;;;;;;;18.38;16.95;;;;;;;10.26;100.00;98335.25;2065936;28;20170;-72
2022/05/24 01:55:19;;;;;;;19.25;17.50;;;;;;;10.25;100.00;98333.69;2065456;28;20765;-72
2022/05/24 01:56:24;;;;;;;18.25;16.95;;;;;;;10.25;100.00;98338.19;2057874;28;20185;-73
2022/05/24 01:57:28;;;;;;;17.98;16.63;;;;;;;10.20;100.00;98331.91;2065660;28;20296;-73
2022/05/24 01:58:32;;;;;;;17.83;16.52;;;;;;;10.24;100.00;98336.63;2065000;28;20255;-73
2022/05/24 01:59:35;;;;;;;18.17;16.88;;;;;;;10.25;100.00;98330.22;2065275;28;20204;-73
2022/05/24 02:00:39;;;;;;;19.27;17.73;;;;;;;10.25;100.00;98338.19;2065869;28;20204;-73
2022/05/24 02:01:46;;;;;;;19.33;17.92;;;;;;;10.21;100.00;98338.03;2065895;28;20185;-73
2022/05/24 02:02:48;;;;;;;17.92;16.60;;;;;;;10.27;100.00;98333.38;2066079;28;20252;-73
2022/05/24 02:03:50;;;;;;;18.63;17.08;;;;;;;10.28;100.00;98332.28;2065114;28;20223;-73
2022/05/24 02:04:52;;;;;;;17.83;16.52;;;;;;;10.26;100.00;98335.25;2065229;28;20229;-73
2022/05/24 02:05:56;;;;;;;18.55;17.10;;;;;;;10.25;100.00;98335.53;2065347;28;20567;-73
2022/05/24 02:07:00;;;;;;;19.60;18.00;;;;;;;10.20;100.00;98337.25;2065984;28;20182;-73
2022/05/24 02:08:01;;;;;;;18.05;16.70;;;;;;;10.20;100.00;98341.78;2066036;28;20185;-72
2022/05/24 02:09:06;;;;;;;18.38;16.88;;;;;;;10.20;100.00;98339.91;2065857;28;20691;-72
2022/05/24 02:10:08;;;;;;;19.23;17.58;;;;;;;10.24;100.00;98333.97;2065827;28;20698;-72
2022/05/24 02:11:09;;;;;;;19.85;18.25;;;;;;;10.20;100.00;98337.25;2065819;28;20239;-73
2022/05/24 02:12:13;;;;;;;18.50;16.92;;;;;;;10.26;100.00;98329.13;2065804;28;20188;-73
2022/05/24 02:13:22;;;;;;;19.95;18.15;;;;;;;10.23;100.00;98329.75;2065827;28;20652;-73
2022/05/24 02:14:28;;;;;;;18.67;17.27;;;;;;;10.25;100.00;98327.53;2065841;28;20591;-73
2022/05/24 02:15:36;;;;;;;19.83;18.25;;;;;;;10.30;100.00;98330.06;2066081;28;20181;-72
2022/05/24 02:16:41;;;;;;;18.58;17.08;;;;;;;10.27;100.00;98325.38;2065723;28;20674;-73
2022/05/24 02:17:48;;;;;;;18.25;16.77;;;;;;;10.23;100.00;98321.75;2065993;28;20170;-73
2022/05/24 02:18:50;;;;;;;19.08;17.40;;;;;;;10.24;100.00;98321.44;2065762;28;20208;-73
2022/05/24 02:19:55;;;;;;;17.50;16.27;;;;;;;10.18;100.00;98323.44;2065768;28;20247;-72
2022/05/24 02:20:56;;;;;;;18.35;17.00;;;;;;;10.19;100.00;98321.56;2065330;28;20212;-72
2022/05/24 02:22:02;;;;;;;18.50;17.10;;;;;;;10.19;100.00;98313.56;2065947;28;20197;-72
2022/05/24 02:23:04;;;;;;;19.48;17.65;;;;;;;10.22;100.00;98314.81;2065321;28;20708;-72
2022/05/24 02:24:18;;;;;;;18.92;17.52;;;;;;;10.26;100.00;98323.81;2065285;28;20365;-73
2022/05/24 02:25:23;;;;;;;19.00;17.30;;;;;;;10.26;100.00;98326.47;2065148;28;20204;-73
2022/05/24 02:26:26;;;;;;;19.27;17.67;;;;;;;10.28;100.00;98314.38;2065295;28;20185;-72
2022/05/24 02:27:27;;;;;;;19.35;17.88;;;;;;;10.23;100.00;98319.06;2065787;28;20655;-73
2022/05/24 02:28:31;;;;;;;19.42;17.92;;;;;;;10.19;100.00;98322.34;2065956;28;20194;-72
2022/05/24 02:29:33;;;;;;;19.75;18.08;;;;;;;10.16;100.00;98324.81;2065549;28;20197;-72
2022/05/24 02:30:37;;;;;;;20.48;18.85;;;;;;;10.13;100.00;98315.59;2065426;28;20244;-73
2022/05/24 02:31:38;;;;;;;20.75;18.95;;;;;;;10.08;100.00;98322.97;2057348;28;20202;-72
2022/05/24 02:32:39;;;;;;;19.47;17.80;;;;;;;10.11;100.00;98317.78;2065028;28;20201;-73
2022/05/24 02:33:40;;;;;;;19.98;18.33;;;;;;;10.08;100.00;98317.63;2065309;28;20203;-73
2022/05/24 02:34:43;;;;;;;19.93;18.33;;;;;;;10.13;100.00;98317.47;2065336;28;20216;-73
2022/05/24 02:35:44;;;;;;;20.20;18.10;;;;;;;10.10;100.00;98324.22;2065163;28;20200;-73
2022/05/24 02:36:48;;;;;;;20.35;18.60;;;;;;;10.05;100.00;98318.22;2065546;28;20679;-73
2022/05/24 02:37:49;;;;;;;20.13;18.52;;;;;;;10.02;100.00;98329.53;2065885;28;20534;-73
2022/05/24 02:38:51;;;;;;;20.10;18.40;;;;;;;10.01;100.00;98328.75;2066005;28;20185;-73
2022/05/24 02:41:28;;;;;;;21.73;19.67;;;;;;;10.00;100.00;98327.16;2059772;28;20296;-72
2022/05/24 02:42:32;;;;;;;21.15;19.30;;;;;;;10.01;100.00;98320.75;2065588;28;20675;-73
2022/05/24 02:43:35;;;;;;;22.05;20.02;;;;;;;10.12;100.00;98319.34;2065010;28;20205;-73
2022/05/24 02:44:38;;;;;;;21.10;19.40;;;;;;;10.13;100.00;98315.59;2065278;28;20251;-73
2022/05/24 02:45:39;;;;;;;21.60;19.70;;;;;;;10.09;100.00;98306.66;2065718;28;20600;-73
2022/05/24 02:46:43;;;;;;;21.23;19.53;;;;;;;10.11;100.00;98311.66;2065776;28;20186;-73
2022/05/24 02:47:43;;;;;;;21.90;19.80;;;;;;;10.08;100.00;98318.41;2064757;28;20227;-73
2022/05/24 02:48:47;;;;;;;20.73;19.03;;;;;;;10.08;100.00;98322.97;2065090;28;20190;-72
2022/05/24 02:49:49;;;;;;;20.42;18.73;;;;;;;10.05;100.00;98316.34;2065185;28;20212;-73
2022/05/24 02:50:50;;;;;;;22.10;20.05;;;;;;;10.05;100.00;98319.00;2065047;28;20192;-73
2022/05/24 02:51:52;;;;;;;22.13;20.03;;;;;;;10.06;100.00;98319.78;2066156;28;20236;-73
2022/05/24 02:52:53;;;;;;;21.85;20.05;;;;;;;10.07;100.00;98316.03;2066566;28;20678;-72
2022/05/24 02:53:55;;;;;;;21.27;19.57;;;;;;;10.06;100.00;98314.47;2066621;28;20252;-73
2022/05/24 02:54:56;;;;;;;20.52;18.92;;;;;;;10.05;100.00;98313.69;2066627;28;20928;-72
2022/05/24 02:56:03;;;;;;;21.35;19.30;;;;;;;10.08;100.00;98315.75;2066571;28;20189;-72
2022/05/24 02:57:07;;;;;;;20.83;19.13;;;;;;;10.10;100.00;98312.75;2066931;28;20223;-72
2022/05/24 02:58:09;;;;;;;20.90;19.20;;;;;;;10.02;100.00;98314.31;2066612;28;20264;-72
2022/05/24 02:59:13;;;;;;;20.37;18.77;;;;;;;9.98;100.00;98324.00;2067202;28;20196;-73
2022/05/24 03:00:20;;;;;;;22.13;19.95;;;;;;;9.94;100.00;98316.97;2067423;28;20243;-73
2022/05/24 03:01:25;;;;;;;21.92;20.02;;;;;;;10.00;100.00;98315.72;2067181;28;20224;-72
2022/05/24 03:02:26;;;;;;;21.63;19.73;;;;;;;10.03;100.00;98310.56;2066467;28;20215;-73
2022/05/24 03:03:28;;;;;;;22.35;20.38;;;;;;;10.03;100.00;98312.44;2066758;28;20217;-72
2022/05/24 03:04:29;;;;;;;21.85;19.92;;;;;;;10.01;100.00;98322.63;2067217;28;20255;-73
2022/05/24 03:05:31;;;;;;;21.70;19.73;;;;;;;9.96;100.00;98312.88;2067229;28;20244;-72
2022/05/24 03:09:33;;;;;;;22.38;20.58;;;;;;;9.99;100.00;98322.94;2066828;28;20220;-73
2022/05/24 03:09:34;;;;;;;22.38;20.50;;;;;;;10.02;100.00;98308.97;2066919;28;20619;-72
2022/05/24 03:10:35;;;;;;;22.02;20.20;;;;;;;10.07;100.00;98313.38;2067207;28;20697;-73
2022/05/24 03:14:26;;;;;;;22.27;20.27;;;;;;;9.99;100.00;98298.13;2052409;28;20622;-73
2022/05/24 03:15:29;;;;;;;21.42;19.63;;;;;;;10.04;100.00;98304.13;2066715;28;20185;-72
2022/05/24 03:16:31;;;;;;;21.83;19.88;;;;;;;10.10;100.00;98304.78;2066962;28;20194;-72
2022/05/24 03:17:33;;;;;;;22.73;20.65;;;;;;;10.07;100.00;98302.69;2066429;28;20216;-73
2022/05/24 03:18:35;;;;;;;21.40;19.47;;;;;;;10.04;100.00;98312.13;2066480;28;20219;-73
2022/05/24 03:19:35;;;;;;;22.48;20.58;;;;;;;10.05;100.00;98308.34;2066545;28;20460;-72
2022/05/24 03:20:38;;;;;;;21.10;19.40;;;;;;;10.09;100.00;98303.19;2066530;28;20228;-73
2022/05/24 03:21:40;;;;;;;22.38;20.50;;;;;;;10.22;100.00;98314.81;2066697;28;20228;-72
2022/05/24 03:22:41;;;;;;;22.63;20.50;;;;;;;10.17;100.00;98313.88;2066965;28;20208;-73
2022/05/24 03:23:44;;;;;;;22.42;20.50;;;;;;;10.22;100.00;98312.16;2066954;28;20197;-72
2022/05/24 03:24:48;;;;;;;22.33;20.43;;;;;;;10.16;100.00;98311.50;2066281;28;20201;-73
2022/05/24 03:25:49;;;;;;;21.98;20.15;;;;;;;10.10;100.00;98310.88;2058681;28;20208;-72
2022/05/24 03:26:52;;;;;;;22.23;20.47;;;;;;;10.01;100.00;98317.28;2066442;28;20188;-72
2022/05/24 03:27:53;;;;;;;22.40;20.60;;;;;;;9.96;100.00;98310.22;2067125;28;20201;-72
2022/05/24 03:28:55;;;;;;;21.43;19.63;;;;;;;9.99;100.00;98306.94;2066973;28;20185;-73
2022/05/24 03:29:55;;;;;;;21.40;19.70;;;;;;;10.00;100.00;98311.19;2066847;28;20236;-73
2022/05/24 03:30:59;;;;;;;21.80;20.07;;;;;;;10.02;100.00;98306.31;2067147;28;20686;-73
2022/05/24 03:32:00;;;;;;;22.23;20.40;;;;;;;10.14;100.00;98308.38;2066317;28;20683;-73
2022/05/24 03:33:01;;;;;;;21.95;20.13;;;;;;;10.11;100.00;98307.13;2066526;28;20193;-73
2022/05/24 03:34:03;;;;;;;21.08;19.17;;;;;;;10.12;100.00;98311.34;2067093;28;20253;-72
2022/05/24 03:35:07;;;;;;;21.25;19.60;;;;;;;10.12;100.00;98306.03;2066264;28;20360;-73
2022/05/24 03:36:10;;;;;;;20.65;19.02;;;;;;;10.11;100.00;98304.44;2065833;28;20192;-72
2022/05/24 03:37:11;;;;;;;20.77;18.88;;;;;;;10.13;100.00;98309.47;2067040;28;20197;-72
2022/05/24 03:38:16;;;;;;;20.97;19.07;;;;;;;10.09;100.00;98298.66;2066766;28;20190;-72
2022/05/24 03:39:17;;;;;;;20.38;18.83;;;;;;;10.10;100.00;98310.88;2066184;28;20197;-73
2022/05/24 03:40:18;;;;;;;21.47;19.57;;;;;;;10.09;100.00;98313.88;2066243;28;20193;-73
2022/05/24 03:41:20;;;;;;;21.15;19.45;;;;;;;10.15;100.00;98316.06;2066823;28;20200;-72
2022/05/24 03:42:23;;;;;;;21.80;19.85;;;;;;;10.12;100.00;98311.34;2066129;28;20211;-72
2022/05/24 03:43:24;;;;;;;21.92;20.08;;;;;;;10.11;100.00;98312.44;2066255;28;20189;-72
2022/05/24 03:44:29;;;;;;;21.47;19.77;;;;;;;10.08;100.00;98321.06;2066239;28;20255;-72
2022/05/24 03:45:33;;;;;;;21.80;19.90;;;;;;;10.10;100.00;98318.09;2066349;28;20600;-73
2022/05/24 03:46:37;;;;;;;21.42;19.73;;;;;;;10.13;100.00;98314.81;2066791;28;20272;-73
2022/05/24 03:47:39;;;;;;;21.50;19.65;;;;;;;10.19;100.00;98311.69;2066176;28;20296;-73
2022/05/24 03:48:42;;;;;;;21.40;19.52;;;;;;;10.28;100.00;98308.28;2058288;28;20297;-73
2022/05/24 03:49:45;;;;;;;21.48;19.70;;;;;;;10.25;100.00;98315.03;2058659;28;20643;-72
2022/05/24 03:50:46;;;;;;;21.10;19.40;;;;;;;10.25;100.00;98315.03;2066416;28;20255;-73
2022/05/24 03:51:49;;;;;;;21.00;19.20;;;;;;;10.24;100.00;98320.63;2066538;28;20232;-72
2022/05/24 03:52:52;;;;;;;22.73;20.42;;;;;;;10.27;100.00;98317.38;2066910;28;20203;-73
2022/05/24 03:53:53;;;;;;;22.00;20.30;;;;;;;10.32;100.00;98317.22;2066767;28;20544;-73
2022/05/24 03:54:57;;;;;;;23.15;20.60;;;;;;;10.31;100.00;98318.31;2066842;28;20216;-72
2022/05/24 03:55:59;;;;;;;23.00;20.85;;;;;;;10.27;100.00;98318.16;2066947;28;20225;-73
2022/05/24 03:58:20;;;;;;;23.35;21.13;;;;;;;10.29;100.00;98315.19;2066275;28;20471;-73
2022/05/24 03:59:21;;;;;;;23.83;21.50;;;;;;;10.30;100.00;98322.06;2065992;28;20247;-73
2022/05/24 04:00:25;;;;;;;23.03;21.03;;;;;;;10.28;100.00;98310.94;2058054;28;20238;-73
2022/05/24 04:01:26;;;;;;;23.83;21.63;;;;;;;10.30;100.00;98316.75;2066340;28;20281;-73
2022/05/24 04:02:31;;;;;;;21.50;19.85;;;;;;;10.35;100.00;98321.94;2066754;28;20207;-73
2022/05/24 04:03:35;;;;;;;23.83;21.42;;;;;;;10.39;100.00;98323.66;2065412;28;20201;-72
2022/05/24 04:04:37;;;;;;;22.55;20.63;;;;;;;10.42;100.00;98322.22;2066347;28;20200;-72
2022/05/24 04:05:38;;;;;;;22.38;20.42;;;;;;;10.42;100.00;98322.22;2066693;28;20239;-73
2022/05/24 04:06:42;;;;;;;21.63;19.67;;;;;;;10.40;100.00;98314.53;2066349;28;20620;-73
2022/05/24 04:07:42;;;;;;;21.50;19.80;;;;;;;10.38;100.00;98318.63;2066743;28;20275;-73
2022/05/24 04:08:45;;;;;;;22.10;20.00;;;;;;;10.40;100.00;98319.88;2066759;28;20671;-73
2022/05/24 04:09:46;;;;;;;22.25;19.90;;;;;;;10.43;100.00;98318.50;2066627;28;20555;-73
2022/05/24 04:10:49;;;;;;;21.85;20.05;;;;;;;10.43;100.00;98318.50;2066685;28;20193;-72
2022/05/24 04:11:52;;;;;;;21.65;19.85;;;;;;;10.37;100.00;98317.06;2065891;28;20262;-73
2022/05/24 04:12:54;;;;;;;21.25;19.65;;;;;;;10.46;100.00;98315.19;2066210;28;20221;-72
2022/05/24 04:13:56;;;;;;;21.00;19.27;;;;;;;10.50;100.00;98313.44;2066782;28;20217;-73
2022/05/24 04:14:58;;;;;;;22.02;20.33;;;;;;;10.51;100.00;98315.00;2066605;28;20719;-72
2022/05/24 04:16:01;;;;;;;21.50;19.73;;;;;;;10.52;100.00;98313.16;2066601;28;20554;-73
2022/05/24 04:17:03;;;;;;;21.25;19.60;;;;;;;10.59;100.00;98316.91;2066213;28;20201;-73
2022/05/24 04:18:06;;;;;;;20.63;18.98;;;;;;;10.60;100.00;98315.03;2066031;28;20605;-73
2022/05/24 04:19:07;;;;;;;22.42;20.40;;;;;;;10.65;100.00;98304.97;2066535;28;20209;-73
2022/05/24 04:20:11;;;;;;;22.33;20.20;;;;;;;10.67;100.00;98316.13;2066775;28;20220;-73
2022/05/24 04:21:16;;;;;;;20.58;18.98;;;;;;;10.69;100.00;98305.94;2065480;28;20225;-73
2022/05/24 04:22:18;;;;;;;21.77;19.98;;;;;;;10.69;100.00;98316.63;2065889;28;20237;-73
2022/05/24 04:23:24;;;;;;;23.33;21.33;;;;;;;10.72;100.00;98310.63;2065934;28;20276;-73
2022/05/24 04:24:27;;;;;;;23.00;21.10;;;;;;;10.72;100.00;98309.84;2066635;28;20169;-73
2022/05/24 04:25:35;;;;;;;22.98;20.92;;;;;;;10.72;100.00;98305.31;2065820;28;20259;-73
2022/05/24 04:26:36;;;;;;;23.33;21.35;;;;;;;10.68;100.00;98309.69;2066069;28;20181;-73
2022/05/24 04:27:39;;;;;;;24.03;22.00;;;;;;;10.69;100.00;98311.28;2065865;28;20675;-73
2022/05/24 04:28:42;;;;;;;23.60;21.60;;;;;;;10.73;100.00;98312.19;2065877;28;20200;-73
2022/05/24 04:29:43;;;;;;;24.17;21.85;;;;;;;10.74;100.00;98312.97;2066310;28;20270;-73
2022/05/24 04:30:45;;;;;;;25.07;22.67;;;;;;;10.79;100.00;98320.84;2065832;28;20236;-73
2022/05/24 04:31:45;;;;;;;23.92;21.90;;;;;;;10.82;100.00;98314.09;2057889;28;20208;-73
2022/05/24 04:32:48;;;;;;;24.33;22.20;;;;;;;10.80;100.00;98310.94;2065978;28;20674;-73
2022/05/24 04:33:52;;;;;;;25.35;22.90;;;;;;;10.82;100.00;98308.75;2065756;28;20731;-72
2022/05/24 04:34:54;;;;;;;24.33;22.13;;;;;;;10.78;100.00;98313.16;2057998;28;20220;-72
2022/05/24 04:35:58;;;;;;;23.23;21.25;;;;;;;10.75;100.00;98315.34;2065340;28;20614;-73
2022/05/24 04:36:59;;;;;;;23.30;21.30;;;;;;;10.79;100.00;98317.38;2066415;28;20197;-73
2022/05/24 04:38:02;;;;;;;22.37;20.47;;;;;;;10.85;100.00;98314.22;2065720;28;20288;-73
2022/05/24 04:39:03;;;;;;;24.00;21.60;;;;;;;10.84;100.00;98318.00;2057825;28;20571;-72
2022/05/24 04:40:07;;;;;;;22.47;20.53;;;;;;;10.83;100.00;98315.66;2065850;28;20204;-72
2022/05/24 04:42:28;;;;;;;22.15;20.23;;;;;;;10.87;100.00;98316.59;2066577;28;20535;-73
2022/05/24 04:43:30;;;;;;;22.73;20.55;;;;;;;10.91;100.00;98320.97;2066484;28;20272;-73
2022/05/24 04:44:32;;;;;;;22.85;20.77;;;;;;;10.95;100.00;98321.16;2065691;28;20208;-72
2022/05/24 04:45:33;;;;;;;22.65;20.65;;;;;;;10.95;100.00;98326.50;2065752;28;20671;-72
2022/05/24 04:47:51;;;;;;;22.45;20.55;;;;;;;11.02;100.00;98324.88;2066033;28;20196;-73
2022/05/24 04:48:53;;;;;;;22.17;20.13;;;;;;;11.08;100.00;98328.19;2065585;28;20209;-73
2022/05/24 04:49:59;;;;;;;22.40;20.50;;;;;;;11.09;100.00;98328.97;2065790;28;20197;-73
2022/05/24 04:51:04;;;;;;;23.45;21.17;;;;;;;11.03;100.00;98331.81;2065024;28;20641;-73
2022/05/24 04:52:07;;;;;;;22.98;20.65;;;;;;;11.12;100.00;98334.47;2065719;28;20170;-72
2022/05/24 04:53:08;;;;;;;23.35;21.25;;;;;;;11.17;100.00;98328.94;2065607;28;20545;-73
2022/05/24 04:54:09;;;;;;;24.17;21.87;;;;;;;11.12;100.00;98336.31;2065699;28;20236;-73
2022/05/24 04:55:14;;;;;;;24.08;21.98;;;;;;;11.09;100.00;98331.63;2066302;28;20663;-73
2022/05/24 04:56:16;;;;;;;22.95;21.15;;;;;;;11.12;100.00;98339.81;2066422;28;20260;-72
2022/05/24 04:57:18;;;;;;;22.70;20.80;;;;;;;11.17;100.00;98341.50;2066332;28;20655;-72
2022/05/24 04:58:22;;;;;;;23.30;21.27;;;;;;;11.19;100.00;98342.75;2066495;28;20193;-73
2022/05/24 04:59:24;;;;;;;22.73;20.92;;;;;;;11.21;100.00;98345.91;2066395;28;20288;-73
2022/05/24 05:00:26;;;;;;;23.35;21.00;;;;;;;11.23;100.00;98350.94;2066226;28;20190;-73
2022/05/24 05:01:27;;;;;;;23.15;21.05;;;;;;;11.20;100.00;98340.88;2066230;28;20548;-73
2022/05/24 05:02:30;;;;;;;23.27;20.93;;;;;;;11.25;100.00;98346.84;2066207;28;20295;-72
2022/05/24 05:03:31;;;;;;;23.02;21.02;;;;;;;11.32;100.00;98341.78;2066184;28;20251;-73